Flight Track Log - Related Links

Times and Time Zones

All times are in EST time to prevent confusion due to time zone crossing. See the N400PU flight status page for this flight to view local times or setup timezone preferences in your user account.

Time Position Orientation Groundspeed Altitude Reporting Facility
EST Latitude Longitude Course Direction KTS MPH feet Rate Location/Type
Mon 07:14:13 AM 40.3678 -86.8461 126° Southeast 238 274 2,900  Level Indianapolis Center
Mon 07:15:15 AM 40.3183 -86.7556 126° Southeast 254 292 3,000 49 Climbing Chicago Center
Mon 07:16:16 AM 40.2794 -86.6822 125° Southeast 250 288 3,000  Level Chicago Center
Mon 07:17:00 AM 40.1457 -86.4452 127° Southeast  Level Estimated
Mon 07:17:17 AM 40.2397 -86.6119 127° Southeast 246 283 3,000  Level Chicago Center
Mon 07:18:00 AM 40.1001 -86.3645 126° Southeast  Level FlightAware Approximate
Mon 07:18:18 AM 40.2019 -86.5433 126° Southeast 240 276 3,000  Level Chicago Center
Mon 07:19:00 AM 40.0545 -86.2839 126° Southeast  Level FlightAware Approximate
Mon 07:19:18 AM 40.1739 -86.4728 117° Southeast 228 262 3,000  Level Chicago Center
Mon 07:20:19 AM 40.1511 -86.3989 112° Southeast 222 255 3,000  Level Chicago Center
Mon 07:21:20 AM 40.1281 -86.3247 112° Southeast 220 253 3,000  Level Chicago Center
Mon 07:22:20 AM 40.0917 -86.2736 133° Southeast 222 255 3,000  Level Indianapolis Center
Mon 07:23:22 AM 40.0356 -86.2858 189° South 210 242 3,000  Level Indianapolis Center
Mon 07:24:22 AM 39.9778 -86.3003 191° South 209 241 3,000  Level Indianapolis Center
Mon 07:25:23 AM 39.9178 -86.3283 200° South 221 254 3,000  Level Indianapolis Center
Mon 07:26:24 AM 39.8583 -86.3606 203° Southwest 230 265 3,000  Level Indianapolis Center
Mon 07:27:25 AM 39.7867 -86.4003 203° Southwest 236 272 3,000  Level Indianapolis Center
Mon 07:28:26 AM 39.7275 -86.4358 205° Southwest 238 274 3,000 -49 Level Indianapolis Center
Mon 07:29:27 AM 39.6808 -86.4947 224° Southwest 239 275 2,900  Descending Indianapolis Center
Mon 07:30:29 AM 39.6325 -86.5300 209° Southwest 222 255 3,000 49 Climbing Indianapolis Center
Mon 07:31:30 AM 39.5828 -86.5119 164° South 215 247 3,000  Level Indianapolis Center
Mon 07:32:31 AM 39.6047 -86.4483 66° East 205 236 3,000 -148 Level Indianapolis Center
Mon 07:33:32 AM 39.6406 -86.4050 43° Northeast 190 219 2,700 -541 Descending Indianapolis Center
Mon 07:34:33 AM 39.6664 -86.3717 45° Northeast 156 180 1,900 -836 Descending Indianapolis Center
Mon 07:35:34 AM 39.6947 -86.3358 44° Northeast 131 151 1,000 -590 Descending Indianapolis Center
Mon 07:36:35 AM 39.7158 -86.3092 44° Northeast 118 136 700 -146 Descending Indianapolis Center
Mon 07:37:37 AM 39.7192 -86.3042 49° Northeast 61 70 700  Level Indianapolis Center
Mon 07:38:38 AM 39.7242 -86.2986 41° Northeast 39 45 700  Level Indianapolis Center
Mon 07:39:39 AM 39.7283 -86.2969 17° North 35 40 700  Level Indianapolis Center

Login

Don't have an account? Register now (free) for customized features, flight alerts, and more!